sensor_id;sensor_type;location;lat;lon;timestamp;P1;durP1;ratioP1;P2;durP2;ratioP2
19251;SDS011;9760;50.944;5.304;2023-07-16T00:00:46;5.77;;;2.10;;
19251;SDS011;9760;50.944;5.304;2023-07-16T00:03:12;11.50;;;2.80;;
19251;SDS011;9760;50.944;5.304;2023-07-16T00:05:39;6.57;;;2.70;;
19251;SDS011;9760;50.944;5.304;2023-07-16T00:08:04;5.37;;;2.40;;
19251;SDS011;9760;50.944;5.304;2023-07-16T00:10:32;6.27;;;2.87;;
19251;SDS011;9760;50.944;5.304;2023-07-16T00:13:02;6.63;;;2.30;;
19251;SDS011;9760;50.944;5.304;2023-07-16T00:15:28;7.87;;;2.17;;
19251;SDS011;9760;50.944;5.304;2023-07-16T00:17:54;9.67;;;2.77;;
19251;SDS011;9760;50.944;5.304;2023-07-16T00:20:20;8.17;;;2.47;;
19251;SDS011;9760;50.944;5.304;2023-07-16T00:22:46;7.77;;;2.83;;
19251;SDS011;9760;50.944;5.304;2023-07-16T00:25:12;7.97;;;2.27;;
19251;SDS011;9760;50.944;5.304;2023-07-16T00:27:37;6.47;;;2.10;;
19251;SDS011;9760;50.944;5.304;2023-07-16T00:30:03;5.47;;;2.40;;
19251;SDS011;9760;50.944;5.304;2023-07-16T00:32:29;8.43;;;2.53;;
19251;SDS011;9760;50.944;5.304;2023-07-16T00:34:55;8.47;;;2.33;;
19251;SDS011;9760;50.944;5.304;2023-07-16T00:37:20;7.60;;;2.40;;
19251;SDS011;9760;50.944;5.304;2023-07-16T00:39:46;5.67;;;2.10;;
19251;SDS011;9760;50.944;5.304;2023-07-16T00:42:12;7.07;;;2.90;;
19251;SDS011;9760;50.944;5.304;2023-07-16T00:44:37;8.23;;;2.67;;
19251;SDS011;9760;50.944;5.304;2023-07-16T00:47:03;5.77;;;2.00;;
19251;SDS011;9760;50.944;5.304;2023-07-16T00:49:29;9.37;;;2.03;;
19251;SDS011;9760;50.944;5.304;2023-07-16T00:51:54;16.70;;;2.10;;
19251;SDS011;9760;50.944;5.304;2023-07-16T00:54:20;8.83;;;2.10;;
19251;SDS011;9760;50.944;5.304;2023-07-16T00:56:47;7.63;;;1.93;;
19251;SDS011;9760;50.944;5.304;2023-07-16T00:59:13;9.53;;;2.30;;
19251;SDS011;9760;50.944;5.304;2023-07-16T01:01:39;12.57;;;2.33;;
19251;SDS011;9760;50.944;5.304;2023-07-16T01:04:04;9.07;;;2.07;;
19251;SDS011;9760;50.944;5.304;2023-07-16T01:06:34;7.07;;;2.10;;
19251;SDS011;9760;50.944;5.304;2023-07-16T01:09:08;10.30;;;2.20;;
19251;SDS011;9760;50.944;5.304;2023-07-16T01:11:43;10.17;;;2.73;;
19251;SDS011;9760;50.944;5.304;2023-07-16T01:14:10;6.23;;;2.47;;
19251;SDS011;9760;50.944;5.304;2023-07-16T01:16:37;7.03;;;2.67;;
19251;SDS011;9760;50.944;5.304;2023-07-16T01:19:03;7.80;;;2.00;;
19251;SDS011;9760;50.944;5.304;2023-07-16T01:21:38;11.17;;;2.70;;
19251;SDS011;9760;50.944;5.304;2023-07-16T01:24:37;9.07;;;2.57;;
19251;SDS011;9760;50.944;5.304;2023-07-16T01:27:21;12.00;;;2.93;;
19251;SDS011;9760;50.944;5.304;2023-07-16T01:30:10;10.10;;;2.57;;
19251;SDS011;9760;50.944;5.304;2023-07-16T01:32:40;9.43;;;2.40;;
19251;SDS011;9760;50.944;5.304;2023-07-16T01:35:07;13.30;;;2.80;;
19251;SDS011;9760;50.944;5.304;2023-07-16T01:37:33;8.83;;;2.33;;
19251;SDS011;9760;50.944;5.304;2023-07-16T01:39:59;8.40;;;2.57;;
19251;SDS011;9760;50.944;5.304;2023-07-16T01:42:25;11.07;;;2.73;;
19251;SDS011;9760;50.944;5.304;2023-07-16T01:44:51;10.40;;;2.67;;
19251;SDS011;9760;50.944;5.304;2023-07-16T01:50:12;8.13;;;2.57;;
19251;SDS011;9760;50.944;5.304;2023-07-16T01:52:38;10.07;;;2.30;;
19251;SDS011;9760;50.944;5.304;2023-07-16T01:55:04;6.50;;;2.20;;
19251;SDS011;9760;50.944;5.304;2023-07-16T01:57:30;16.03;;;2.50;;
19251;SDS011;9760;50.944;5.304;2023-07-16T01:59:55;7.00;;;2.20;;
19251;SDS011;9760;50.944;5.304;2023-07-16T02:02:21;6.87;;;2.40;;
19251;SDS011;9760;50.944;5.304;2023-07-16T02:04:46;14.23;;;2.10;;
19251;SDS011;9760;50.944;5.304;2023-07-16T02:07:12;7.97;;;2.77;;
19251;SDS011;9760;50.944;5.304;2023-07-16T02:09:38;10.47;;;2.57;;
19251;SDS011;9760;50.944;5.304;2023-07-16T02:12:03;9.93;;;2.40;;
19251;SDS011;9760;50.944;5.304;2023-07-16T02:14:29;11.67;;;2.30;;
19251;SDS011;9760;50.944;5.304;2023-07-16T02:16:55;16.47;;;2.70;;
19251;SDS011;9760;50.944;5.304;2023-07-16T02:19:20;8.47;;;2.57;;
19251;SDS011;9760;50.944;5.304;2023-07-16T02:21:46;16.23;;;2.43;;
19251;SDS011;9760;50.944;5.304;2023-07-16T02:24:11;7.77;;;2.43;;
19251;SDS011;9760;50.944;5.304;2023-07-16T02:26:39;4.47;;;2.10;;
19251;SDS011;9760;50.944;5.304;2023-07-16T02:29:04;11.20;;;2.20;;
19251;SDS011;9760;50.944;5.304;2023-07-16T02:31:33;9.40;;;2.27;;
19251;SDS011;9760;50.944;5.304;2023-07-16T02:33:59;14.97;;;2.30;;
19251;SDS011;9760;50.944;5.304;2023-07-16T02:36:25;13.90;;;2.60;;
19251;SDS011;9760;50.944;5.304;2023-07-16T02:38:51;12.13;;;2.83;;
19251;SDS011;9760;50.944;5.304;2023-07-16T02:41:16;10.27;;;2.57;;
19251;SDS011;9760;50.944;5.304;2023-07-16T02:43:42;14.57;;;2.60;;
19251;SDS011;9760;50.944;5.304;2023-07-16T02:46:10;7.33;;;2.90;;
19251;SDS011;9760;50.944;5.304;2023-07-16T02:48:35;10.83;;;3.13;;
19251;SDS011;9760;50.944;5.304;2023-07-16T02:51:01;15.17;;;2.93;;
19251;SDS011;9760;50.944;5.304;2023-07-16T02:53:27;11.73;;;2.90;;
19251;SDS011;9760;50.944;5.304;2023-07-16T02:55:52;11.47;;;3.17;;
19251;SDS011;9760;50.944;5.304;2023-07-16T02:58:18;8.17;;;2.80;;
19251;SDS011;9760;50.944;5.304;2023-07-16T03:00:43;14.93;;;2.93;;
19251;SDS011;9760;50.944;5.304;2023-07-16T03:03:09;18.70;;;3.80;;
19251;SDS011;9760;50.944;5.304;2023-07-16T03:05:35;11.73;;;2.90;;
19251;SDS011;9760;50.944;5.304;2023-07-16T03:08:00;8.43;;;3.10;;
19251;SDS011;9760;50.944;5.304;2023-07-16T03:10:26;17.03;;;3.03;;
19251;SDS011;9760;50.944;5.304;2023-07-16T03:12:52;9.47;;;3.13;;
19251;SDS011;9760;50.944;5.304;2023-07-16T03:15:18;8.67;;;2.83;;
19251;SDS011;9760;50.944;5.304;2023-07-16T03:17:44;8.60;;;2.87;;
19251;SDS011;9760;50.944;5.304;2023-07-16T03:20:10;9.50;;;2.80;;
19251;SDS011;9760;50.944;5.304;2023-07-16T03:22:36;11.70;;;2.70;;
19251;SDS011;9760;50.944;5.304;2023-07-16T03:25:01;8.37;;;2.63;;
19251;SDS011;9760;50.944;5.304;2023-07-16T03:27:27;11.40;;;2.90;;
19251;SDS011;9760;50.944;5.304;2023-07-16T03:29:54;14.10;;;3.87;;
19251;SDS011;9760;50.944;5.304;2023-07-16T03:32:19;14.23;;;2.77;;
19251;SDS011;9760;50.944;5.304;2023-07-16T03:34:45;11.90;;;3.30;;
19251;SDS011;9760;50.944;5.304;2023-07-16T03:37:10;14.30;;;3.13;;
19251;SDS011;9760;50.944;5.304;2023-07-16T03:39:36;12.63;;;3.73;;
19251;SDS011;9760;50.944;5.304;2023-07-16T03:42:02;14.93;;;3.10;;
19251;SDS011;9760;50.944;5.304;2023-07-16T03:44:29;19.33;;;3.50;;
19251;SDS011;9760;50.944;5.304;2023-07-16T03:46:54;13.83;;;3.33;;
19251;SDS011;9760;50.944;5.304;2023-07-16T03:49:20;15.43;;;3.30;;
19251;SDS011;9760;50.944;5.304;2023-07-16T03:51:46;13.53;;;3.07;;
19251;SDS011;9760;50.944;5.304;2023-07-16T03:54:11;20.53;;;3.47;;
19251;SDS011;9760;50.944;5.304;2023-07-16T03:56:37;14.40;;;3.90;;
19251;SDS011;9760;50.944;5.304;2023-07-16T03:59:02;13.93;;;3.37;;
19251;SDS011;9760;50.944;5.304;2023-07-16T04:01:28;9.83;;;3.00;;
19251;SDS011;9760;50.944;5.304;2023-07-16T04:03:54;16.63;;;3.47;;
19251;SDS011;9760;50.944;5.304;2023-07-16T04:06:19;18.53;;;3.23;;
19251;SDS011;9760;50.944;5.304;2023-07-16T04:08:45;15.33;;;3.80;;
19251;SDS011;9760;50.944;5.304;2023-07-16T04:11:10;21.07;;;3.67;;
19251;SDS011;9760;50.944;5.304;2023-07-16T04:13:36;9.53;;;3.03;;
19251;SDS011;9760;50.944;5.304;2023-07-16T04:16:02;13.73;;;3.60;;
19251;SDS011;9760;50.944;5.304;2023-07-16T04:18:27;14.40;;;3.40;;
19251;SDS011;9760;50.944;5.304;2023-07-16T04:20:53;19.07;;;3.20;;
19251;SDS011;9760;50.944;5.304;2023-07-16T04:23:19;10.77;;;3.07;;
19251;SDS011;9760;50.944;5.304;2023-07-16T04:25:45;19.07;;;3.50;;
19251;SDS011;9760;50.944;5.304;2023-07-16T04:28:11;9.03;;;2.93;;
19251;SDS011;9760;50.944;5.304;2023-07-16T04:30:37;13.47;;;3.50;;
19251;SDS011;9760;50.944;5.304;2023-07-16T04:33:03;16.90;;;3.70;;
19251;SDS011;9760;50.944;5.304;2023-07-16T04:35:29;16.13;;;4.03;;
19251;SDS011;9760;50.944;5.304;2023-07-16T04:37:55;14.43;;;3.57;;
19251;SDS011;9760;50.944;5.304;2023-07-16T04:40:20;15.10;;;3.03;;
19251;SDS011;9760;50.944;5.304;2023-07-16T04:42:46;11.87;;;3.77;;
19251;SDS011;9760;50.944;5.304;2023-07-16T04:45:12;16.73;;;4.00;;
19251;SDS011;9760;50.944;5.304;2023-07-16T04:47:38;11.67;;;3.40;;
19251;SDS011;9760;50.944;5.304;2023-07-16T04:50:04;15.53;;;3.47;;
19251;SDS011;9760;50.944;5.304;2023-07-16T04:52:30;19.30;;;4.60;;
19251;SDS011;9760;50.944;5.304;2023-07-16T04:54:56;16.90;;;4.23;;
19251;SDS011;9760;50.944;5.304;2023-07-16T04:57:21;15.90;;;3.80;;
19251;SDS011;9760;50.944;5.304;2023-07-16T04:59:47;13.17;;;3.70;;
19251;SDS011;9760;50.944;5.304;2023-07-16T05:02:13;13.63;;;3.83;;
19251;SDS011;9760;50.944;5.304;2023-07-16T05:04:40;17.10;;;3.70;;
19251;SDS011;9760;50.944;5.304;2023-07-16T05:07:06;12.50;;;4.00;;
19251;SDS011;9760;50.944;5.304;2023-07-16T05:09:32;14.63;;;4.33;;
19251;SDS011;9760;50.944;5.304;2023-07-16T05:11:57;13.27;;;4.80;;
19251;SDS011;9760;50.944;5.304;2023-07-16T05:14:27;13.37;;;4.20;;
19251;SDS011;9760;50.944;5.304;2023-07-16T05:16:53;20.70;;;4.77;;
19251;SDS011;9760;50.944;5.304;2023-07-16T05:19:20;25.60;;;5.50;;
19251;SDS011;9760;50.944;5.304;2023-07-16T05:21:45;15.10;;;5.53;;
19251;SDS011;9760;50.944;5.304;2023-07-16T05:24:11;15.87;;;4.67;;
19251;SDS011;9760;50.944;5.304;2023-07-16T05:26:37;19.27;;;5.47;;
19251;SDS011;9760;50.944;5.304;2023-07-16T05:29:03;13.83;;;5.50;;
19251;SDS011;9760;50.944;5.304;2023-07-16T05:31:29;20.20;;;6.30;;
19251;SDS011;9760;50.944;5.304;2023-07-16T05:33:54;17.67;;;5.03;;
19251;SDS011;9760;50.944;5.304;2023-07-16T05:36:20;15.83;;;4.67;;
19251;SDS011;9760;50.944;5.304;2023-07-16T05:38:46;17.27;;;4.80;;
19251;SDS011;9760;50.944;5.304;2023-07-16T05:41:11;16.53;;;4.83;;
19251;SDS011;9760;50.944;5.304;2023-07-16T05:43:37;13.07;;;4.93;;
19251;SDS011;9760;50.944;5.304;2023-07-16T05:46:02;15.53;;;4.50;;
19251;SDS011;9760;50.944;5.304;2023-07-16T05:48:30;14.10;;;4.63;;
19251;SDS011;9760;50.944;5.304;2023-07-16T05:50:56;17.37;;;5.17;;
19251;SDS011;9760;50.944;5.304;2023-07-16T05:53:21;17.87;;;4.97;;
19251;SDS011;9760;50.944;5.304;2023-07-16T05:55:47;21.50;;;5.93;;
19251;SDS011;9760;50.944;5.304;2023-07-16T05:58:14;15.17;;;5.80;;
19251;SDS011;9760;50.944;5.304;2023-07-16T06:00:41;18.83;;;4.90;;
19251;SDS011;9760;50.944;5.304;2023-07-16T06:03:06;21.37;;;5.80;;
19251;SDS011;9760;50.944;5.304;2023-07-16T06:05:32;16.30;;;5.83;;
19251;SDS011;9760;50.944;5.304;2023-07-16T06:07:59;18.80;;;5.63;;
19251;SDS011;9760;50.944;5.304;2023-07-16T06:10:25;20.40;;;4.83;;
19251;SDS011;9760;50.944;5.304;2023-07-16T06:12:51;15.57;;;4.80;;
19251;SDS011;9760;50.944;5.304;2023-07-16T06:15:17;16.50;;;5.10;;
19251;SDS011;9760;50.944;5.304;2023-07-16T06:17:42;22.53;;;5.83;;
19251;SDS011;9760;50.944;5.304;2023-07-16T06:20:08;13.87;;;5.40;;
19251;SDS011;9760;50.944;5.304;2023-07-16T06:22:34;17.17;;;5.93;;
19251;SDS011;9760;50.944;5.304;2023-07-16T06:24:59;14.57;;;5.80;;
19251;SDS011;9760;50.944;5.304;2023-07-16T06:27:25;18.93;;;6.67;;
19251;SDS011;9760;50.944;5.304;2023-07-16T06:29:51;15.20;;;5.70;;
19251;SDS011;9760;50.944;5.304;2023-07-16T06:32:17;23.33;;;6.60;;
19251;SDS011;9760;50.944;5.304;2023-07-16T06:34:42;21.90;;;6.33;;
19251;SDS011;9760;50.944;5.304;2023-07-16T06:37:08;26.10;;;7.30;;
19251;SDS011;9760;50.944;5.304;2023-07-16T06:39:34;16.73;;;6.23;;
19251;SDS011;9760;50.944;5.304;2023-07-16T06:41:59;21.90;;;6.53;;
19251;SDS011;9760;50.944;5.304;2023-07-16T06:44:25;24.10;;;6.40;;
19251;SDS011;9760;50.944;5.304;2023-07-16T06:46:51;19.67;;;7.23;;
19251;SDS011;9760;50.944;5.304;2023-07-16T06:49:17;20.87;;;7.07;;
19251;SDS011;9760;50.944;5.304;2023-07-16T06:51:43;21.10;;;6.13;;
19251;SDS011;9760;50.944;5.304;2023-07-16T06:54:08;16.30;;;6.13;;
19251;SDS011;9760;50.944;5.304;2023-07-16T06:56:34;25.53;;;5.90;;
19251;SDS011;9760;50.944;5.304;2023-07-16T06:59:00;17.87;;;5.70;;
19251;SDS011;9760;50.944;5.304;2023-07-16T07:01:25;15.07;;;5.97;;
19251;SDS011;9760;50.944;5.304;2023-07-16T07:03:52;21.70;;;6.47;;
19251;SDS011;9760;50.944;5.304;2023-07-16T07:06:18;21.57;;;5.77;;
19251;SDS011;9760;50.944;5.304;2023-07-16T07:08:44;20.27;;;6.77;;
19251;SDS011;9760;50.944;5.304;2023-07-16T07:11:10;18.40;;;6.97;;
19251;SDS011;9760;50.944;5.304;2023-07-16T07:13:35;23.03;;;7.67;;
19251;SDS011;9760;50.944;5.304;2023-07-16T07:16:01;23.47;;;6.00;;
19251;SDS011;9760;50.944;5.304;2023-07-16T07:18:27;15.40;;;6.03;;
19251;SDS011;9760;50.944;5.304;2023-07-16T07:20:52;18.37;;;6.47;;
19251;SDS011;9760;50.944;5.304;2023-07-16T07:23:18;20.50;;;6.30;;
19251;SDS011;9760;50.944;5.304;2023-07-16T07:25:47;12.73;;;5.83;;
19251;SDS011;9760;50.944;5.304;2023-07-16T07:28:15;23.23;;;6.77;;
19251;SDS011;9760;50.944;5.304;2023-07-16T07:30:40;16.37;;;5.83;;
19251;SDS011;9760;50.944;5.304;2023-07-16T07:33:06;27.83;;;6.80;;
19251;SDS011;9760;50.944;5.304;2023-07-16T07:35:31;15.77;;;5.53;;
19251;SDS011;9760;50.944;5.304;2023-07-16T07:37:57;17.60;;;6.60;;
19251;SDS011;9760;50.944;5.304;2023-07-16T07:40:22;17.37;;;5.80;;
19251;SDS011;9760;50.944;5.304;2023-07-16T07:42:48;16.27;;;5.97;;
19251;SDS011;9760;50.944;5.304;2023-07-16T07:45:14;23.37;;;6.53;;
19251;SDS011;9760;50.944;5.304;2023-07-16T07:47:40;12.57;;;6.03;;
19251;SDS011;9760;50.944;5.304;2023-07-16T07:50:06;18.27;;;5.63;;
19251;SDS011;9760;50.944;5.304;2023-07-16T07:52:32;12.60;;;5.47;;
19251;SDS011;9760;50.944;5.304;2023-07-16T07:54:57;17.70;;;5.17;;
19251;SDS011;9760;50.944;5.304;2023-07-16T07:57:23;16.10;;;5.87;;
19251;SDS011;9760;50.944;5.304;2023-07-16T07:59:49;21.43;;;5.60;;
19251;SDS011;9760;50.944;5.304;2023-07-16T08:02:17;13.57;;;5.17;;
19251;SDS011;9760;50.944;5.304;2023-07-16T08:04:43;23.17;;;5.50;;
19251;SDS011;9760;50.944;5.304;2023-07-16T08:07:09;15.57;;;5.23;;
19251;SDS011;9760;50.944;5.304;2023-07-16T08:09:37;16.00;;;5.60;;
19251;SDS011;9760;50.944;5.304;2023-07-16T08:12:03;14.40;;;6.17;;
19251;SDS011;9760;50.944;5.304;2023-07-16T08:14:28;17.37;;;5.83;;
19251;SDS011;9760;50.944;5.304;2023-07-16T08:16:54;18.97;;;5.67;;
19251;SDS011;9760;50.944;5.304;2023-07-16T08:19:20;14.67;;;5.60;;
19251;SDS011;9760;50.944;5.304;2023-07-16T08:21:45;15.40;;;5.63;;
19251;SDS011;9760;50.944;5.304;2023-07-16T08:24:11;12.53;;;5.73;;
19251;SDS011;9760;50.944;5.304;2023-07-16T08:26:36;15.17;;;5.03;;
19251;SDS011;9760;50.944;5.304;2023-07-16T08:29:02;22.07;;;5.37;;
19251;SDS011;9760;50.944;5.304;2023-07-16T08:31:28;17.13;;;5.30;;
19251;SDS011;9760;50.944;5.304;2023-07-16T08:33:54;13.10;;;4.67;;
19251;SDS011;9760;50.944;5.304;2023-07-16T08:36:20;16.27;;;5.07;;
19251;SDS011;9760;50.944;5.304;2023-07-16T08:38:45;11.47;;;5.30;;
19251;SDS011;9760;50.944;5.304;2023-07-16T08:41:11;12.60;;;5.20;;
19251;SDS011;9760;50.944;5.304;2023-07-16T08:43:37;19.07;;;5.43;;
19251;SDS011;9760;50.944;5.304;2023-07-16T08:46:04;14.77;;;5.20;;
19251;SDS011;9760;50.944;5.304;2023-07-16T08:48:30;16.37;;;4.57;;
19251;SDS011;9760;50.944;5.304;2023-07-16T08:50:57;19.53;;;4.50;;
19251;SDS011;9760;50.944;5.304;2023-07-16T08:53:26;15.33;;;5.07;;
19251;SDS011;9760;50.944;5.304;2023-07-16T08:55:52;10.80;;;4.50;;
19251;SDS011;9760;50.944;5.304;2023-07-16T08:58:19;15.23;;;5.80;;
19251;SDS011;9760;50.944;5.304;2023-07-16T09:00:48;15.63;;;4.30;;
19251;SDS011;9760;50.944;5.304;2023-07-16T09:03:14;13.87;;;5.00;;
19251;SDS011;9760;50.944;5.304;2023-07-16T09:05:46;10.47;;;4.27;;
19251;SDS011;9760;50.944;5.304;2023-07-16T09:08:12;14.77;;;3.93;;
19251;SDS011;9760;50.944;5.304;2023-07-16T09:10:39;11.00;;;3.80;;
19251;SDS011;9760;50.944;5.304;2023-07-16T09:13:06;10.50;;;4.20;;
19251;SDS011;9760;50.944;5.304;2023-07-16T09:15:32;6.23;;;3.60;;
19251;SDS011;9760;50.944;5.304;2023-07-16T09:17:59;7.23;;;3.30;;
19251;SDS011;9760;50.944;5.304;2023-07-16T09:20:25;7.17;;;2.93;;
19251;SDS011;9760;50.944;5.304;2023-07-16T09:22:55;11.73;;;3.50;;
19251;SDS011;9760;50.944;5.304;2023-07-16T09:25:26;8.77;;;3.00;;
19251;SDS011;9760;50.944;5.304;2023-07-16T09:27:55;10.70;;;4.00;;
19251;SDS011;9760;50.944;5.304;2023-07-16T09:30:22;13.20;;;4.50;;
19251;SDS011;9760;50.944;5.304;2023-07-16T09:32:48;11.93;;;4.57;;
19251;SDS011;9760;50.944;5.304;2023-07-16T09:35:14;12.33;;;4.03;;
19251;SDS011;9760;50.944;5.304;2023-07-16T09:37:42;11.33;;;4.73;;
19251;SDS011;9760;50.944;5.304;2023-07-16T09:40:09;12.83;;;4.10;;
19251;SDS011;9760;50.944;5.304;2023-07-16T09:42:36;6.97;;;3.40;;
19251;SDS011;9760;50.944;5.304;2023-07-16T09:45:04;8.73;;;3.43;;
19251;SDS011;9760;50.944;5.304;2023-07-16T09:47:31;13.50;;;3.80;;
19251;SDS011;9760;50.944;5.304;2023-07-16T09:49:56;7.03;;;3.30;;
19251;SDS011;9760;50.944;5.304;2023-07-16T09:52:23;7.60;;;3.00;;
19251;SDS011;9760;50.944;5.304;2023-07-16T09:54:51;11.77;;;3.73;;
19251;SDS011;9760;50.944;5.304;2023-07-16T09:57:20;6.87;;;3.20;;
19251;SDS011;9760;50.944;5.304;2023-07-16T09:59:48;8.93;;;3.17;;
19251;SDS011;9760;50.944;5.304;2023-07-16T10:02:16;8.60;;;2.53;;
19251;SDS011;9760;50.944;5.304;2023-07-16T10:04:43;7.20;;;2.23;;
19251;SDS011;9760;50.944;5.304;2023-07-16T10:07:19;7.77;;;2.90;;
19251;SDS011;9760;50.944;5.304;2023-07-16T10:09:53;10.67;;;2.67;;
19251;SDS011;9760;50.944;5.304;2023-07-16T10:12:21;8.50;;;2.67;;
19251;SDS011;9760;50.944;5.304;2023-07-16T10:14:51;6.17;;;2.30;;
19251;SDS011;9760;50.944;5.304;2023-07-16T10:17:21;7.83;;;2.73;;
19251;SDS011;9760;50.944;5.304;2023-07-16T10:22:41;7.47;;;2.80;;
19251;SDS011;9760;50.944;5.304;2023-07-16T10:27:43;7.47;;;2.83;;
19251;SDS011;9760;50.944;5.304;2023-07-16T10:30:09;8.33;;;3.00;;
19251;SDS011;9760;50.944;5.304;2023-07-16T10:32:35;11.13;;;3.10;;
19251;SDS011;9760;50.944;5.304;2023-07-16T10:35:01;8.90;;;2.90;;
19251;SDS011;9760;50.944;5.304;2023-07-16T10:37:30;11.90;;;3.60;;
19251;SDS011;9760;50.944;5.304;2023-07-16T10:39:57;10.33;;;2.87;;
19251;SDS011;9760;50.944;5.304;2023-07-16T10:42:24;5.83;;;2.97;;
19251;SDS011;9760;50.944;5.304;2023-07-16T10:44:51;7.53;;;2.90;;
19251;SDS011;9760;50.944;5.304;2023-07-16T10:47:18;8.80;;;3.20;;
19251;SDS011;9760;50.944;5.304;2023-07-16T10:49:47;6.73;;;2.87;;
19251;SDS011;9760;50.944;5.304;2023-07-16T10:52:13;10.23;;;3.10;;
19251;SDS011;9760;50.944;5.304;2023-07-16T10:54:39;12.30;;;4.07;;
19251;SDS011;9760;50.944;5.304;2023-07-16T10:57:07;10.27;;;3.77;;
19251;SDS011;9760;50.944;5.304;2023-07-16T10:59:32;12.50;;;4.30;;
19251;SDS011;9760;50.944;5.304;2023-07-16T11:01:58;10.23;;;2.93;;
19251;SDS011;9760;50.944;5.304;2023-07-16T11:04:24;9.67;;;3.53;;
19251;SDS011;9760;50.944;5.304;2023-07-16T11:06:51;12.53;;;3.10;;
19251;SDS011;9760;50.944;5.304;2023-07-16T11:09:17;7.47;;;2.97;;
19251;SDS011;9760;50.944;5.304;2023-07-16T11:11:43;8.73;;;3.03;;
19251;SDS011;9760;50.944;5.304;2023-07-16T11:14:08;6.70;;;2.77;;
19251;SDS011;9760;50.944;5.304;2023-07-16T11:16:35;8.87;;;3.00;;
19251;SDS011;9760;50.944;5.304;2023-07-16T11:19:05;6.83;;;3.00;;
19251;SDS011;9760;50.944;5.304;2023-07-16T11:21:34;7.80;;;2.53;;
19251;SDS011;9760;50.944;5.304;2023-07-16T11:24:07;7.93;;;2.70;;
19251;SDS011;9760;50.944;5.304;2023-07-16T11:26:49;7.33;;;3.13;;
19251;SDS011;9760;50.944;5.304;2023-07-16T11:29:16;9.40;;;3.23;;
19251;SDS011;9760;50.944;5.304;2023-07-16T11:31:41;9.23;;;3.43;;
19251;SDS011;9760;50.944;5.304;2023-07-16T11:34:07;5.90;;;2.77;;
19251;SDS011;9760;50.944;5.304;2023-07-16T11:36:37;6.80;;;2.93;;
19251;SDS011;9760;50.944;5.304;2023-07-16T11:39:03;7.10;;;3.13;;
19251;SDS011;9760;50.944;5.304;2023-07-16T11:41:29;11.33;;;3.20;;
19251;SDS011;9760;50.944;5.304;2023-07-16T11:43:58;6.53;;;2.70;;
19251;SDS011;9760;50.944;5.304;2023-07-16T11:46:25;8.67;;;3.20;;
19251;SDS011;9760;50.944;5.304;2023-07-16T11:48:57;10.77;;;3.00;;
19251;SDS011;9760;50.944;5.304;2023-07-16T11:51:23;9.13;;;3.17;;
19251;SDS011;9760;50.944;5.304;2023-07-16T11:53:49;7.23;;;3.07;;
19251;SDS011;9760;50.944;5.304;2023-07-16T11:56:15;8.93;;;2.90;;
19251;SDS011;9760;50.944;5.304;2023-07-16T11:58:41;10.23;;;2.73;;
19251;SDS011;9760;50.944;5.304;2023-07-16T12:01:06;8.73;;;3.57;;
19251;SDS011;9760;50.944;5.304;2023-07-16T12:03:32;11.03;;;3.20;;
19251;SDS011;9760;50.944;5.304;2023-07-16T12:05:57;8.53;;;3.30;;
19251;SDS011;9760;50.944;5.304;2023-07-16T12:08:23;9.60;;;3.03;;
19251;SDS011;9760;50.944;5.304;2023-07-16T12:10:49;14.63;;;4.33;;
19251;SDS011;9760;50.944;5.304;2023-07-16T12:13:14;7.47;;;3.10;;
19251;SDS011;9760;50.944;5.304;2023-07-16T12:15:40;5.37;;;2.77;;
19251;SDS011;9760;50.944;5.304;2023-07-16T12:18:06;9.83;;;3.27;;
19251;SDS011;9760;50.944;5.304;2023-07-16T12:20:31;8.60;;;3.40;;
19251;SDS011;9760;50.944;5.304;2023-07-16T12:22:59;11.30;;;3.47;;
19251;SDS011;9760;50.944;5.304;2023-07-16T12:25:24;6.93;;;2.83;;
19251;SDS011;9760;50.944;5.304;2023-07-16T12:27:50;6.07;;;2.70;;
19251;SDS011;9760;50.944;5.304;2023-07-16T12:30:15;7.67;;;3.10;;
19251;SDS011;9760;50.944;5.304;2023-07-16T12:32:41;9.40;;;3.33;;
19251;SDS011;9760;50.944;5.304;2023-07-16T12:35:07;7.43;;;3.00;;
19251;SDS011;9760;50.944;5.304;2023-07-16T12:37:32;10.60;;;3.27;;
19251;SDS011;9760;50.944;5.304;2023-07-16T12:39:58;7.20;;;3.07;;
19251;SDS011;9760;50.944;5.304;2023-07-16T12:42:24;8.53;;;3.37;;
19251;SDS011;9760;50.944;5.304;2023-07-16T12:44:49;5.47;;;2.80;;
19251;SDS011;9760;50.944;5.304;2023-07-16T12:47:15;7.70;;;2.97;;
19251;SDS011;9760;50.944;5.304;2023-07-16T12:49:41;8.87;;;2.70;;
19251;SDS011;9760;50.944;5.304;2023-07-16T12:52:06;8.87;;;2.80;;
19251;SDS011;9760;50.944;5.304;2023-07-16T12:54:32;9.30;;;2.83;;
19251;SDS011;9760;50.944;5.304;2023-07-16T12:56:58;7.13;;;2.43;;
19251;SDS011;9760;50.944;5.304;2023-07-16T12:59:24;7.63;;;3.03;;
19251;SDS011;9760;50.944;5.304;2023-07-16T13:01:49;6.23;;;2.60;;
19251;SDS011;9760;50.944;5.304;2023-07-16T13:04:16;9.87;;;2.63;;
19251;SDS011;9760;50.944;5.304;2023-07-16T13:06:41;7.17;;;2.67;;
19251;SDS011;9760;50.944;5.304;2023-07-16T13:09:07;5.73;;;2.63;;
19251;SDS011;9760;50.944;5.304;2023-07-16T13:11:33;8.03;;;2.80;;
19251;SDS011;9760;50.944;5.304;2023-07-16T13:13:58;9.83;;;2.80;;
19251;SDS011;9760;50.944;5.304;2023-07-16T13:16:24;6.90;;;2.80;;
19251;SDS011;9760;50.944;5.304;2023-07-16T13:18:50;11.77;;;3.20;;
19251;SDS011;9760;50.944;5.304;2023-07-16T13:21:15;3.63;;;2.13;;
19251;SDS011;9760;50.944;5.304;2023-07-16T13:23:41;6.50;;;2.10;;
19251;SDS011;9760;50.944;5.304;2023-07-16T13:26:06;9.00;;;2.63;;
19251;SDS011;9760;50.944;5.304;2023-07-16T13:28:32;10.83;;;3.33;;
19251;SDS011;9760;50.944;5.304;2023-07-16T13:30:58;7.97;;;3.63;;
19251;SDS011;9760;50.944;5.304;2023-07-16T13:33:23;9.67;;;3.67;;
19251;SDS011;9760;50.944;5.304;2023-07-16T13:35:49;8.47;;;3.47;;
19251;SDS011;9760;50.944;5.304;2023-07-16T13:38:15;15.00;;;5.13;;
19251;SDS011;9760;50.944;5.304;2023-07-16T13:40:41;11.07;;;3.47;;
19251;SDS011;9760;50.944;5.304;2023-07-16T13:43:06;9.73;;;3.50;;
19251;SDS011;9760;50.944;5.304;2023-07-16T13:45:33;7.13;;;3.00;;
19251;SDS011;9760;50.944;5.304;2023-07-16T13:47:58;12.57;;;3.37;;
19251;SDS011;9760;50.944;5.304;2023-07-16T13:50:24;5.93;;;3.40;;
19251;SDS011;9760;50.944;5.304;2023-07-16T13:52:50;10.20;;;2.93;;
19251;SDS011;9760;50.944;5.304;2023-07-16T13:55:15;5.53;;;2.80;;
19251;SDS011;9760;50.944;5.304;2023-07-16T13:57:41;8.17;;;3.10;;
19251;SDS011;9760;50.944;5.304;2023-07-16T14:00:08;5.47;;;2.30;;
19251;SDS011;9760;50.944;5.304;2023-07-16T14:02:37;7.90;;;2.80;;
19251;SDS011;9760;50.944;5.304;2023-07-16T14:05:02;8.67;;;2.67;;
19251;SDS011;9760;50.944;5.304;2023-07-16T14:07:29;5.17;;;2.40;;
19251;SDS011;9760;50.944;5.304;2023-07-16T14:09:55;5.67;;;2.53;;
19251;SDS011;9760;50.944;5.304;2023-07-16T14:12:21;6.93;;;2.23;;
19251;SDS011;9760;50.944;5.304;2023-07-16T14:14:46;5.70;;;2.30;;
19251;SDS011;9760;50.944;5.304;2023-07-16T14:17:12;5.27;;;2.10;;
19251;SDS011;9760;50.944;5.304;2023-07-16T14:19:38;6.33;;;2.00;;
19251;SDS011;9760;50.944;5.304;2023-07-16T14:22:03;6.97;;;2.10;;
19251;SDS011;9760;50.944;5.304;2023-07-16T14:24:30;4.47;;;2.23;;
19251;SDS011;9760;50.944;5.304;2023-07-16T14:26:57;5.70;;;2.07;;
19251;SDS011;9760;50.944;5.304;2023-07-16T14:29:25;7.50;;;2.80;;
19251;SDS011;9760;50.944;5.304;2023-07-16T14:31:52;8.07;;;2.20;;
19251;SDS011;9760;50.944;5.304;2023-07-16T14:34:18;5.60;;;2.50;;
19251;SDS011;9760;50.944;5.304;2023-07-16T14:36:43;8.40;;;2.93;;
19251;SDS011;9760;50.944;5.304;2023-07-16T14:39:09;9.30;;;2.70;;
19251;SDS011;9760;50.944;5.304;2023-07-16T14:41:35;4.47;;;2.50;;
19251;SDS011;9760;50.944;5.304;2023-07-16T14:44:00;8.33;;;2.40;;
19251;SDS011;9760;50.944;5.304;2023-07-16T14:46:26;6.57;;;3.53;;
19251;SDS011;9760;50.944;5.304;2023-07-16T14:48:51;10.23;;;3.63;;
19251;SDS011;9760;50.944;5.304;2023-07-16T14:51:20;8.33;;;2.90;;
19251;SDS011;9760;50.944;5.304;2023-07-16T14:53:46;12.23;;;4.47;;
19251;SDS011;9760;50.944;5.304;2023-07-16T14:56:12;10.53;;;3.27;;